sensor_id;sensor_type;location;lat;lon;timestamp;P1;durP1;ratioP1;P2;durP2;ratioP2
13969;SDS011;7057;49.984;8.404;2024-02-28T00:01:52;19.03;;;16.20;;
13969;SDS011;7057;49.984;8.404;2024-02-28T00:04:20;22.33;;;17.27;;
13969;SDS011;7057;49.984;8.404;2024-02-28T00:06:48;22.40;;;18.63;;
13969;SDS011;7057;49.984;8.404;2024-02-28T00:09:16;19.20;;;17.20;;
13969;SDS011;7057;49.984;8.404;2024-02-28T00:11:44;19.83;;;16.37;;
13969;SDS011;7057;49.984;8.404;2024-02-28T00:14:11;25.23;;;18.73;;
13969;SDS011;7057;49.984;8.404;2024-02-28T00:16:39;19.37;;;17.23;;
13969;SDS011;7057;49.984;8.404;2024-02-28T00:19:07;21.63;;;18.37;;
13969;SDS011;7057;49.984;8.404;2024-02-28T00:21:36;22.03;;;18.70;;
13969;SDS011;7057;49.984;8.404;2024-02-28T00:24:05;20.93;;;18.23;;
13969;SDS011;7057;49.984;8.404;2024-02-28T00:26:33;24.27;;;18.90;;
13969;SDS011;7057;49.984;8.404;2024-02-28T00:29:00;21.23;;;18.63;;
13969;SDS011;7057;49.984;8.404;2024-02-28T00:31:28;23.00;;;18.70;;
13969;SDS011;7057;49.984;8.404;2024-02-28T00:33:55;22.40;;;19.30;;
13969;SDS011;7057;49.984;8.404;2024-02-28T00:36:22;25.13;;;19.80;;
13969;SDS011;7057;49.984;8.404;2024-02-28T00:38:50;22.93;;;19.30;;
13969;SDS011;7057;49.984;8.404;2024-02-28T00:41:19;25.37;;;20.83;;
13969;SDS011;7057;49.984;8.404;2024-02-28T00:43:46;22.97;;;19.80;;
13969;SDS011;7057;49.984;8.404;2024-02-28T00:46:14;25.10;;;21.00;;
13969;SDS011;7057;49.984;8.404;2024-02-28T00:48:41;24.87;;;21.50;;
13969;SDS011;7057;49.984;8.404;2024-02-28T00:51:09;23.67;;;20.83;;
13969;SDS011;7057;49.984;8.404;2024-02-28T00:53:36;23.63;;;20.03;;
13969;SDS011;7057;49.984;8.404;2024-02-28T00:56:05;24.57;;;20.07;;
13969;SDS011;7057;49.984;8.404;2024-02-28T00:58:33;24.73;;;20.43;;
13969;SDS011;7057;49.984;8.404;2024-02-28T01:01:01;25.77;;;21.43;;
13969;SDS011;7057;49.984;8.404;2024-02-28T01:03:29;26.27;;;21.43;;
13969;SDS011;7057;49.984;8.404;2024-02-28T01:05:56;27.27;;;21.30;;
13969;SDS011;7057;49.984;8.404;2024-02-28T01:08:26;27.83;;;20.73;;
13969;SDS011;7057;49.984;8.404;2024-02-28T01:10:53;28.57;;;21.93;;
13969;SDS011;7057;49.984;8.404;2024-02-28T01:13:21;23.23;;;20.00;;
13969;SDS011;7057;49.984;8.404;2024-02-28T01:15:50;28.10;;;21.83;;
13969;SDS011;7057;49.984;8.404;2024-02-28T01:18:19;27.07;;;21.30;;
13969;SDS011;7057;49.984;8.404;2024-02-28T01:20:46;28.00;;;22.27;;
13969;SDS011;7057;49.984;8.404;2024-02-28T01:23:16;25.87;;;21.47;;
13969;SDS011;7057;49.984;8.404;2024-02-28T01:25:43;23.20;;;19.73;;
13969;SDS011;7057;49.984;8.404;2024-02-28T01:28:10;26.53;;;21.77;;
13969;SDS011;7057;49.984;8.404;2024-02-28T01:30:38;26.43;;;21.27;;
13969;SDS011;7057;49.984;8.404;2024-02-28T01:33:07;28.47;;;22.70;;
13969;SDS011;7057;49.984;8.404;2024-02-28T01:35:34;26.70;;;21.47;;
13969;SDS011;7057;49.984;8.404;2024-02-28T01:38:02;30.07;;;22.60;;
13969;SDS011;7057;49.984;8.404;2024-02-28T01:40:29;28.57;;;22.30;;
13969;SDS011;7057;49.984;8.404;2024-02-28T01:43:01;26.70;;;21.33;;
13969;SDS011;7057;49.984;8.404;2024-02-28T01:45:29;26.73;;;21.33;;
13969;SDS011;7057;49.984;8.404;2024-02-28T01:47:56;26.90;;;21.10;;
13969;SDS011;7057;49.984;8.404;2024-02-28T01:50:25;27.63;;;21.20;;
13969;SDS011;7057;49.984;8.404;2024-02-28T01:52:53;25.47;;;20.77;;
13969;SDS011;7057;49.984;8.404;2024-02-28T01:55:20;27.27;;;21.10;;
13969;SDS011;7057;49.984;8.404;2024-02-28T01:57:48;26.27;;;21.87;;
13969;SDS011;7057;49.984;8.404;2024-02-28T02:00:15;25.77;;;19.83;;
13969;SDS011;7057;49.984;8.404;2024-02-28T02:02:44;25.77;;;20.43;;
13969;SDS011;7057;49.984;8.404;2024-02-28T02:05:12;25.17;;;20.30;;
13969;SDS011;7057;49.984;8.404;2024-02-28T02:07:42;23.67;;;19.37;;
13969;SDS011;7057;49.984;8.404;2024-02-28T02:10:10;24.80;;;20.03;;
13969;SDS011;7057;49.984;8.404;2024-02-28T02:12:37;25.63;;;20.70;;
13969;SDS011;7057;49.984;8.404;2024-02-28T02:15:05;29.03;;;22.00;;
13969;SDS011;7057;49.984;8.404;2024-02-28T02:17:33;27.90;;;22.77;;
13969;SDS011;7057;49.984;8.404;2024-02-28T02:20:00;29.43;;;22.27;;
13969;SDS011;7057;49.984;8.404;2024-02-28T02:22:32;28.97;;;23.13;;
13969;SDS011;7057;49.984;8.404;2024-02-28T02:25:00;32.00;;;25.17;;
13969;SDS011;7057;49.984;8.404;2024-02-28T02:27:29;37.57;;;27.67;;
13969;SDS011;7057;49.984;8.404;2024-02-28T02:29:56;39.00;;;29.23;;
13969;SDS011;7057;49.984;8.404;2024-02-28T02:32:24;39.07;;;28.80;;
13969;SDS011;7057;49.984;8.404;2024-02-28T02:34:51;43.43;;;31.87;;
13969;SDS011;7057;49.984;8.404;2024-02-28T02:37:19;45.53;;;32.10;;
13969;SDS011;7057;49.984;8.404;2024-02-28T02:39:48;51.23;;;33.63;;
13969;SDS011;7057;49.984;8.404;2024-02-28T02:42:15;46.10;;;33.83;;
13969;SDS011;7057;49.984;8.404;2024-02-28T02:44:43;51.77;;;35.20;;
13969;SDS011;7057;49.984;8.404;2024-02-28T02:47:10;54.50;;;35.40;;
13969;SDS011;7057;49.984;8.404;2024-02-28T02:49:37;44.97;;;34.07;;
13969;SDS011;7057;49.984;8.404;2024-02-28T02:52:05;51.03;;;35.67;;
13969;SDS011;7057;49.984;8.404;2024-02-28T02:54:32;50.17;;;35.80;;
13969;SDS011;7057;49.984;8.404;2024-02-28T02:57:01;53.60;;;36.47;;
13969;SDS011;7057;49.984;8.404;2024-02-28T02:59:29;50.20;;;35.20;;
13969;SDS011;7057;49.984;8.404;2024-02-28T03:01:56;49.70;;;34.60;;
13969;SDS011;7057;49.984;8.404;2024-02-28T03:04:24;52.83;;;35.57;;
13969;SDS011;7057;49.984;8.404;2024-02-28T03:06:51;47.97;;;33.73;;
13969;SDS011;7057;49.984;8.404;2024-02-28T03:09:19;51.80;;;34.73;;
13969;SDS011;7057;49.984;8.404;2024-02-28T03:11:46;53.57;;;35.43;;
13969;SDS011;7057;49.984;8.404;2024-02-28T03:14:15;49.50;;;35.27;;
13969;SDS011;7057;49.984;8.404;2024-02-28T03:16:44;49.27;;;33.37;;
13969;SDS011;7057;49.984;8.404;2024-02-28T03:19:13;49.63;;;34.80;;
13969;SDS011;7057;49.984;8.404;2024-02-28T03:21:40;48.00;;;33.93;;
13969;SDS011;7057;49.984;8.404;2024-02-28T03:24:08;46.77;;;32.93;;
13969;SDS011;7057;49.984;8.404;2024-02-28T03:26:35;50.83;;;34.53;;
13969;SDS011;7057;49.984;8.404;2024-02-28T03:29:03;50.47;;;33.67;;
13969;SDS011;7057;49.984;8.404;2024-02-28T03:31:31;51.47;;;35.50;;
13969;SDS011;7057;49.984;8.404;2024-02-28T03:33:59;51.67;;;34.90;;
13969;SDS011;7057;49.984;8.404;2024-02-28T03:36:27;49.30;;;33.67;;
13969;SDS011;7057;49.984;8.404;2024-02-28T03:38:54;50.33;;;32.53;;
13969;SDS011;7057;49.984;8.404;2024-02-28T03:41:22;50.03;;;34.50;;
13969;SDS011;7057;49.984;8.404;2024-02-28T03:43:49;50.53;;;32.47;;
13969;SDS011;7057;49.984;8.404;2024-02-28T03:46:17;51.00;;;33.73;;
13969;SDS011;7057;49.984;8.404;2024-02-28T03:48:46;47.57;;;31.57;;
13969;SDS011;7057;49.984;8.404;2024-02-28T03:51:13;49.23;;;33.07;;
13969;SDS011;7057;49.984;8.404;2024-02-28T03:53:40;44.53;;;31.07;;
13969;SDS011;7057;49.984;8.404;2024-02-28T03:56:08;45.27;;;30.67;;
13969;SDS011;7057;49.984;8.404;2024-02-28T03:58:36;46.20;;;30.53;;
13969;SDS011;7057;49.984;8.404;2024-02-28T04:01:04;46.83;;;31.60;;
13969;SDS011;7057;49.984;8.404;2024-02-28T04:03:31;48.20;;;32.27;;
13969;SDS011;7057;49.984;8.404;2024-02-28T04:05:59;50.20;;;33.40;;
13969;SDS011;7057;49.984;8.404;2024-02-28T04:08:26;45.37;;;30.33;;
13969;SDS011;7057;49.984;8.404;2024-02-28T04:10:54;46.63;;;31.33;;
13969;SDS011;7057;49.984;8.404;2024-02-28T04:13:21;47.63;;;32.53;;
13969;SDS011;7057;49.984;8.404;2024-02-28T04:15:49;50.93;;;32.10;;
13969;SDS011;7057;49.984;8.404;2024-02-28T04:18:16;49.70;;;32.37;;
13969;SDS011;7057;49.984;8.404;2024-02-28T04:20:44;49.97;;;32.53;;
13969;SDS011;7057;49.984;8.404;2024-02-28T04:23:12;49.43;;;32.57;;
13969;SDS011;7057;49.984;8.404;2024-02-28T04:25:40;49.27;;;32.07;;
13969;SDS011;7057;49.984;8.404;2024-02-28T04:28:07;55.33;;;34.20;;
13969;SDS011;7057;49.984;8.404;2024-02-28T04:30:35;54.93;;;33.70;;
13969;SDS011;7057;49.984;8.404;2024-02-28T04:33:02;61.70;;;35.33;;
13969;SDS011;7057;49.984;8.404;2024-02-28T04:35:30;58.13;;;34.07;;
13969;SDS011;7057;49.984;8.404;2024-02-28T04:37:57;59.37;;;34.67;;
13969;SDS011;7057;49.984;8.404;2024-02-28T04:40:26;65.33;;;34.73;;
13969;SDS011;7057;49.984;8.404;2024-02-28T04:42:53;48.47;;;31.60;;
13969;SDS011;7057;49.984;8.404;2024-02-28T04:45:21;54.57;;;33.07;;
13969;SDS011;7057;49.984;8.404;2024-02-28T04:47:48;55.47;;;32.97;;
13969;SDS011;7057;49.984;8.404;2024-02-28T04:50:17;54.93;;;34.87;;
13969;SDS011;7057;49.984;8.404;2024-02-28T04:52:44;62.57;;;34.80;;
13969;SDS011;7057;49.984;8.404;2024-02-28T04:55:12;61.70;;;34.93;;
13969;SDS011;7057;49.984;8.404;2024-02-28T04:57:41;58.27;;;34.57;;
13969;SDS011;7057;49.984;8.404;2024-02-28T05:00:08;61.90;;;34.03;;
13969;SDS011;7057;49.984;8.404;2024-02-28T05:02:36;58.23;;;33.93;;
13969;SDS011;7057;49.984;8.404;2024-02-28T05:05:03;56.73;;;33.40;;
13969;SDS011;7057;49.984;8.404;2024-02-28T05:07:31;53.10;;;32.27;;
13969;SDS011;7057;49.984;8.404;2024-02-28T05:09:58;55.07;;;33.63;;
13969;SDS011;7057;49.984;8.404;2024-02-28T05:12:26;50.30;;;31.50;;
13969;SDS011;7057;49.984;8.404;2024-02-28T05:14:55;56.57;;;32.37;;
13969;SDS011;7057;49.984;8.404;2024-02-28T05:17:22;56.47;;;34.00;;
13969;SDS011;7057;49.984;8.404;2024-02-28T05:19:50;51.57;;;31.80;;
13969;SDS011;7057;49.984;8.404;2024-02-28T05:22:17;55.43;;;32.00;;
13969;SDS011;7057;49.984;8.404;2024-02-28T05:24:45;57.33;;;32.27;;
13969;SDS011;7057;49.984;8.404;2024-02-28T05:27:13;57.63;;;31.70;;
13969;SDS011;7057;49.984;8.404;2024-02-28T05:29:40;50.40;;;29.30;;
13969;SDS011;7057;49.984;8.404;2024-02-28T05:32:09;56.27;;;31.53;;
13969;SDS011;7057;49.984;8.404;2024-02-28T05:34:37;54.57;;;31.97;;
13969;SDS011;7057;49.984;8.404;2024-02-28T05:37:04;51.13;;;30.57;;
13969;SDS011;7057;49.984;8.404;2024-02-28T05:39:31;53.63;;;30.47;;
13969;SDS011;7057;49.984;8.404;2024-02-28T05:41:59;50.27;;;30.20;;
13969;SDS011;7057;49.984;8.404;2024-02-28T05:44:27;51.00;;;30.77;;
13969;SDS011;7057;49.984;8.404;2024-02-28T05:46:55;59.37;;;31.43;;
13969;SDS011;7057;49.984;8.404;2024-02-28T05:49:24;57.40;;;31.97;;
13969;SDS011;7057;49.984;8.404;2024-02-28T05:51:51;58.33;;;32.27;;
13969;SDS011;7057;49.984;8.404;2024-02-28T05:54:19;51.80;;;30.20;;
13969;SDS011;7057;49.984;8.404;2024-02-28T05:56:46;58.63;;;31.23;;
13969;SDS011;7057;49.984;8.404;2024-02-28T05:59:14;58.47;;;32.40;;
13969;SDS011;7057;49.984;8.404;2024-02-28T06:01:41;51.93;;;29.87;;
13969;SDS011;7057;49.984;8.404;2024-02-28T06:04:09;57.80;;;31.13;;
13969;SDS011;7057;49.984;8.404;2024-02-28T06:06:37;51.83;;;28.67;;
13969;SDS011;7057;49.984;8.404;2024-02-28T06:09:05;58.23;;;29.43;;
13969;SDS011;7057;49.984;8.404;2024-02-28T06:11:33;50.77;;;28.87;;
13969;SDS011;7057;49.984;8.404;2024-02-28T06:14:00;53.13;;;30.20;;
13969;SDS011;7057;49.984;8.404;2024-02-28T06:16:29;48.03;;;28.50;;
13969;SDS011;7057;49.984;8.404;2024-02-28T06:18:56;53.30;;;28.10;;
13969;SDS011;7057;49.984;8.404;2024-02-28T06:21:24;47.53;;;28.07;;
13969;SDS011;7057;49.984;8.404;2024-02-28T06:23:53;50.57;;;28.93;;
13969;SDS011;7057;49.984;8.404;2024-02-28T06:26:20;52.07;;;27.90;;
13969;SDS011;7057;49.984;8.404;2024-02-28T06:28:47;46.30;;;27.23;;
13969;SDS011;7057;49.984;8.404;2024-02-28T06:31:16;42.57;;;26.27;;
13969;SDS011;7057;49.984;8.404;2024-02-28T06:33:45;40.80;;;25.30;;
13969;SDS011;7057;49.984;8.404;2024-02-28T06:36:12;43.43;;;27.00;;
13969;SDS011;7057;49.984;8.404;2024-02-28T06:38:39;44.40;;;26.03;;
13969;SDS011;7057;49.984;8.404;2024-02-28T06:41:08;41.77;;;26.07;;
13969;SDS011;7057;49.984;8.404;2024-02-28T06:43:36;44.83;;;26.30;;
13969;SDS011;7057;49.984;8.404;2024-02-28T06:46:03;43.40;;;26.57;;
13969;SDS011;7057;49.984;8.404;2024-02-28T06:48:30;42.00;;;25.73;;
13969;SDS011;7057;49.984;8.404;2024-02-28T06:50:58;42.50;;;26.13;;
13969;SDS011;7057;49.984;8.404;2024-02-28T06:53:25;42.63;;;26.27;;
13969;SDS011;7057;49.984;8.404;2024-02-28T06:55:53;44.70;;;26.83;;
13969;SDS011;7057;49.984;8.404;2024-02-28T06:58:22;42.20;;;26.23;;
13969;SDS011;7057;49.984;8.404;2024-02-28T07:00:50;41.73;;;26.93;;
13969;SDS011;7057;49.984;8.404;2024-02-28T07:03:18;41.67;;;25.80;;
13969;SDS011;7057;49.984;8.404;2024-02-28T07:05:45;40.47;;;26.50;;
13969;SDS011;7057;49.984;8.404;2024-02-28T07:08:12;44.00;;;26.83;;
13969;SDS011;7057;49.984;8.404;2024-02-28T07:10:40;44.47;;;28.20;;
13969;SDS011;7057;49.984;8.404;2024-02-28T07:13:09;40.87;;;27.50;;
13969;SDS011;7057;49.984;8.404;2024-02-28T07:15:38;39.47;;;25.20;;
13969;SDS011;7057;49.984;8.404;2024-02-28T07:18:07;41.87;;;27.97;;
13969;SDS011;7057;49.984;8.404;2024-02-28T07:20:34;42.80;;;26.13;;
13969;SDS011;7057;49.984;8.404;2024-02-28T07:23:02;41.33;;;25.37;;
13969;SDS011;7057;49.984;8.404;2024-02-28T07:25:29;39.60;;;25.37;;
13969;SDS011;7057;49.984;8.404;2024-02-28T07:27:57;37.67;;;24.33;;
13969;SDS011;7057;49.984;8.404;2024-02-28T07:30:25;41.13;;;25.13;;
13969;SDS011;7057;49.984;8.404;2024-02-28T07:32:54;36.80;;;25.63;;
13969;SDS011;7057;49.984;8.404;2024-02-28T07:35:22;36.97;;;24.53;;
13969;SDS011;7057;49.984;8.404;2024-02-28T07:37:49;38.80;;;24.37;;
13969;SDS011;7057;49.984;8.404;2024-02-28T07:40:16;36.73;;;25.03;;
13969;SDS011;7057;49.984;8.404;2024-02-28T07:42:44;36.50;;;24.33;;
13969;SDS011;7057;49.984;8.404;2024-02-28T07:45:12;39.43;;;25.17;;
13969;SDS011;7057;49.984;8.404;2024-02-28T07:47:39;38.00;;;24.90;;
13969;SDS011;7057;49.984;8.404;2024-02-28T07:50:08;41.63;;;26.97;;
13969;SDS011;7057;49.984;8.404;2024-02-28T07:52:36;39.93;;;27.27;;
13969;SDS011;7057;49.984;8.404;2024-02-28T07:55:04;43.70;;;27.10;;
13969;SDS011;7057;49.984;8.404;2024-02-28T07:57:32;42.83;;;25.80;;
13969;SDS011;7057;49.984;8.404;2024-02-28T07:59:59;46.17;;;28.20;;
13969;SDS011;7057;49.984;8.404;2024-02-28T08:02:27;38.23;;;26.87;;
13969;SDS011;7057;49.984;8.404;2024-02-28T08:04:54;41.90;;;28.23;;
13969;SDS011;7057;49.984;8.404;2024-02-28T08:07:23;39.10;;;27.83;;
13969;SDS011;7057;49.984;8.404;2024-02-28T08:09:50;41.47;;;27.73;;
13969;SDS011;7057;49.984;8.404;2024-02-28T08:12:19;40.00;;;28.10;;
13969;SDS011;7057;49.984;8.404;2024-02-28T08:14:46;41.33;;;28.30;;
13969;SDS011;7057;49.984;8.404;2024-02-28T08:17:14;41.90;;;27.20;;
13969;SDS011;7057;49.984;8.404;2024-02-28T08:19:41;38.57;;;26.93;;
13969;SDS011;7057;49.984;8.404;2024-02-28T08:22:09;36.30;;;26.17;;
13969;SDS011;7057;49.984;8.404;2024-02-28T08:24:38;41.73;;;27.13;;
13969;SDS011;7057;49.984;8.404;2024-02-28T08:27:05;38.23;;;26.80;;
13969;SDS011;7057;49.984;8.404;2024-02-28T08:29:33;38.27;;;26.90;;
13969;SDS011;7057;49.984;8.404;2024-02-28T08:32:01;38.83;;;28.10;;
13969;SDS011;7057;49.984;8.404;2024-02-28T08:34:28;35.53;;;26.10;;
13969;SDS011;7057;49.984;8.404;2024-02-28T08:36:55;39.17;;;27.70;;
13969;SDS011;7057;49.984;8.404;2024-02-28T08:39:23;37.93;;;27.17;;
13969;SDS011;7057;49.984;8.404;2024-02-28T08:41:52;37.20;;;25.83;;
13969;SDS011;7057;49.984;8.404;2024-02-28T08:44:19;34.47;;;25.07;;
13969;SDS011;7057;49.984;8.404;2024-02-28T08:46:47;36.30;;;27.67;;
13969;SDS011;7057;49.984;8.404;2024-02-28T08:49:14;38.13;;;26.00;;
13969;SDS011;7057;49.984;8.404;2024-02-28T08:51:42;35.07;;;25.23;;
13969;SDS011;7057;49.984;8.404;2024-02-28T08:54:09;34.37;;;25.77;;
13969;SDS011;7057;49.984;8.404;2024-02-28T08:56:37;34.27;;;25.17;;
13969;SDS011;7057;49.984;8.404;2024-02-28T08:59:06;31.60;;;24.87;;
13969;SDS011;7057;49.984;8.404;2024-02-28T09:01:33;36.47;;;26.60;;
13969;SDS011;7057;49.984;8.404;2024-02-28T09:04:01;35.30;;;25.87;;
13969;SDS011;7057;49.984;8.404;2024-02-28T09:06:29;35.87;;;26.13;;
13969;SDS011;7057;49.984;8.404;2024-02-28T09:08:56;31.27;;;24.67;;
13969;SDS011;7057;49.984;8.404;2024-02-28T09:11:23;34.77;;;25.83;;
13969;SDS011;7057;49.984;8.404;2024-02-28T09:13:51;32.93;;;25.03;;
13969;SDS011;7057;49.984;8.404;2024-02-28T09:16:21;33.87;;;25.20;;
13969;SDS011;7057;49.984;8.404;2024-02-28T09:18:48;36.53;;;26.40;;
13969;SDS011;7057;49.984;8.404;2024-02-28T09:21:16;38.40;;;26.53;;
13969;SDS011;7057;49.984;8.404;2024-02-28T09:23:43;36.53;;;25.67;;
13969;SDS011;7057;49.984;8.404;2024-02-28T09:26:11;35.17;;;27.93;;
13969;SDS011;7057;49.984;8.404;2024-02-28T09:28:38;36.80;;;28.27;;
13969;SDS011;7057;49.984;8.404;2024-02-28T09:31:05;36.93;;;27.20;;
13969;SDS011;7057;49.984;8.404;2024-02-28T09:33:35;36.43;;;27.20;;
13969;SDS011;7057;49.984;8.404;2024-02-28T09:36:04;33.07;;;23.70;;
13969;SDS011;7057;49.984;8.404;2024-02-28T09:38:31;33.57;;;26.43;;
13969;SDS011;7057;49.984;8.404;2024-02-28T09:41:00;33.57;;;26.00;;
13969;SDS011;7057;49.984;8.404;2024-02-28T09:43:28;33.10;;;25.90;;
13969;SDS011;7057;49.984;8.404;2024-02-28T09:45:56;33.10;;;25.73;;
13969;SDS011;7057;49.984;8.404;2024-02-28T09:48:25;32.77;;;25.33;;
13969;SDS011;7057;49.984;8.404;2024-02-28T09:50:56;32.87;;;24.83;;
13969;SDS011;7057;49.984;8.404;2024-02-28T09:53:23;32.07;;;25.17;;
13969;SDS011;7057;49.984;8.404;2024-02-28T09:55:51;32.63;;;24.17;;
13969;SDS011;7057;49.984;8.404;2024-02-28T09:58:19;33.23;;;26.90;;
13969;SDS011;7057;49.984;8.404;2024-02-28T10:00:47;35.00;;;26.23;;
13969;SDS011;7057;49.984;8.404;2024-02-28T10:03:16;34.27;;;25.50;;
13969;SDS011;7057;49.984;8.404;2024-02-28T10:05:44;31.77;;;24.03;;
13969;SDS011;7057;49.984;8.404;2024-02-28T10:08:13;31.90;;;24.73;;
13969;SDS011;7057;49.984;8.404;2024-02-28T10:10:47;30.17;;;23.90;;
13969;SDS011;7057;49.984;8.404;2024-02-28T10:13:15;30.53;;;23.87;;
13969;SDS011;7057;49.984;8.404;2024-02-28T10:15:43;29.47;;;23.90;;
13969;SDS011;7057;49.984;8.404;2024-02-28T10:18:10;31.30;;;23.63;;
13969;SDS011;7057;49.984;8.404;2024-02-28T10:20:37;32.13;;;24.97;;
13969;SDS011;7057;49.984;8.404;2024-02-28T10:23:05;31.43;;;24.97;;
13969;SDS011;7057;49.984;8.404;2024-02-28T10:25:41;32.23;;;23.80;;
13969;SDS011;7057;49.984;8.404;2024-02-28T10:28:08;29.00;;;23.80;;
13969;SDS011;7057;49.984;8.404;2024-02-28T10:30:38;31.63;;;24.03;;
13969;SDS011;7057;49.984;8.404;2024-02-28T10:33:09;31.97;;;24.10;;
13969;SDS011;7057;49.984;8.404;2024-02-28T10:35:36;29.13;;;23.37;;
13969;SDS011;7057;49.984;8.404;2024-02-28T10:38:04;32.43;;;23.73;;
13969;SDS011;7057;49.984;8.404;2024-02-28T10:40:32;28.90;;;22.87;;
13969;SDS011;7057;49.984;8.404;2024-02-28T10:43:01;30.47;;;24.20;;
13969;SDS011;7057;49.984;8.404;2024-02-28T10:45:30;30.40;;;22.97;;
13969;SDS011;7057;49.984;8.404;2024-02-28T10:47:58;27.90;;;22.70;;
13969;SDS011;7057;49.984;8.404;2024-02-28T10:50:26;30.53;;;22.47;;
13969;SDS011;7057;49.984;8.404;2024-02-28T10:52:53;28.03;;;23.30;;
13969;SDS011;7057;49.984;8.404;2024-02-28T10:55:22;29.07;;;22.53;;
13969;SDS011;7057;49.984;8.404;2024-02-28T10:58:01;28.60;;;22.50;;
13969;SDS011;7057;49.984;8.404;2024-02-28T11:00:30;28.60;;;23.57;;
13969;SDS011;7057;49.984;8.404;2024-02-28T11:02:59;30.67;;;24.23;;
13969;SDS011;7057;49.984;8.404;2024-02-28T11:05:34;28.73;;;24.00;;
13969;SDS011;7057;49.984;8.404;2024-02-28T11:08:03;31.93;;;23.93;;
13969;SDS011;7057;49.984;8.404;2024-02-28T11:10:30;29.03;;;23.50;;
13969;SDS011;7057;49.984;8.404;2024-02-28T11:12:59;30.50;;;22.97;;
13969;SDS011;7057;49.984;8.404;2024-02-28T11:15:26;30.43;;;23.97;;
13969;SDS011;7057;49.984;8.404;2024-02-28T11:17:55;28.87;;;23.23;;
13969;SDS011;7057;49.984;8.404;2024-02-28T11:20:34;28.77;;;23.47;;
13969;SDS011;7057;49.984;8.404;2024-02-28T11:23:02;30.07;;;23.20;;
13969;SDS011;7057;49.984;8.404;2024-02-28T11:25:29;29.43;;;22.90;;
13969;SDS011;7057;49.984;8.404;2024-02-28T11:27:56;29.27;;;23.70;;
13969;SDS011;7057;49.984;8.404;2024-02-28T11:30:24;28.13;;;23.63;;
13969;SDS011;7057;49.984;8.404;2024-02-28T11:32:52;27.60;;;23.10;;
13969;SDS011;7057;49.984;8.404;2024-02-28T11:35:21;27.73;;;22.87;;
13969;SDS011;7057;49.984;8.404;2024-02-28T11:37:49;27.33;;;22.47;;
13969;SDS011;7057;49.984;8.404;2024-02-28T11:40:19;27.13;;;21.90;;
13969;SDS011;7057;49.984;8.404;2024-02-28T11:42:46;25.87;;;21.43;;
13969;SDS011;7057;49.984;8.404;2024-02-28T11:45:14;25.13;;;21.40;;
13969;SDS011;7057;49.984;8.404;2024-02-28T11:47:41;27.07;;;20.27;;
13969;SDS011;7057;49.984;8.404;2024-02-28T11:50:09;28.17;;;22.03;;
13969;SDS011;7057;49.984;8.404;2024-02-28T11:52:37;26.33;;;21.53;;
13969;SDS011;7057;49.984;8.404;2024-02-28T11:55:05;26.27;;;21.30;;
13969;SDS011;7057;49.984;8.404;2024-02-28T11:57:33;23.73;;;20.17;;
13969;SDS011;7057;49.984;8.404;2024-02-28T12:00:04;24.83;;;19.83;;
13969;SDS011;7057;49.984;8.404;2024-02-28T12:02:31;22.70;;;18.43;;
13969;SDS011;7057;49.984;8.404;2024-02-28T12:05:02;20.63;;;17.97;;
13969;SDS011;7057;49.984;8.404;2024-02-28T12:07:30;22.03;;;18.93;;
13969;SDS011;7057;49.984;8.404;2024-02-28T12:09:59;21.53;;;18.70;;
13969;SDS011;7057;49.984;8.404;2024-02-28T12:12:26;22.07;;;19.07;;
13969;SDS011;7057;49.984;8.404;2024-02-28T12:14:57;21.77;;;18.90;;
13969;SDS011;7057;49.984;8.404;2024-02-28T12:17:25;21.33;;;18.10;;
13969;SDS011;7057;49.984;8.404;2024-02-28T12:19:52;20.70;;;17.97;;
13969;SDS011;7057;49.984;8.404;2024-02-28T12:22:19;21.47;;;18.30;;
13969;SDS011;7057;49.984;8.404;2024-02-28T12:24:47;20.80;;;18.13;;
13969;SDS011;7057;49.984;8.404;2024-02-28T12:27:16;22.10;;;18.27;;
13969;SDS011;7057;49.984;8.404;2024-02-28T12:29:43;24.93;;;17.57;;
13969;SDS011;7057;49.984;8.404;2024-02-28T12:32:11;20.47;;;16.33;;
13969;SDS011;7057;49.984;8.404;2024-02-28T12:34:38;20.73;;;18.33;;
13969;SDS011;7057;49.984;8.404;2024-02-28T12:37:06;21.40;;;17.87;;
13969;SDS011;7057;49.984;8.404;2024-02-28T12:39:33;19.90;;;16.03;;
13969;SDS011;7057;49.984;8.404;2024-02-28T12:42:00;21.17;;;18.17;;
13969;SDS011;7057;49.984;8.404;2024-02-28T12:44:29;18.47;;;16.47;;
13969;SDS011;7057;49.984;8.404;2024-02-28T12:46:57;21.37;;;17.73;;
13969;SDS011;7057;49.984;8.404;2024-02-28T12:49:24;19.73;;;16.40;;
13969;SDS011;7057;49.984;8.404;2024-02-28T12:51:52;21.80;;;17.43;;
13969;SDS011;7057;49.984;8.404;2024-02-28T12:54:19;20.93;;;16.53;;
13969;SDS011;7057;49.984;8.404;2024-02-28T12:56:47;20.80;;;16.83;;
13969;SDS011;7057;49.984;8.404;2024-02-28T12:59:14;19.23;;;14.47;;
13969;SDS011;7057;49.984;8.404;2024-02-28T13:01:43;16.63;;;13.80;;
13969;SDS011;7057;49.984;8.404;2024-02-28T13:04:13;16.53;;;14.73;;
13969;SDS011;7057;49.984;8.404;2024-02-28T13:06:40;20.43;;;17.57;;
13969;SDS011;7057;49.984;8.404;2024-02-28T13:09:07;20.87;;;17.80;;
13969;SDS011;7057;49.984;8.404;2024-02-28T13:11:37;21.70;;;17.97;;
13969;SDS011;7057;49.984;8.404;2024-02-28T13:14:05;20.83;;;16.53;;
13969;SDS011;7057;49.984;8.404;2024-02-28T13:16:34;20.33;;;17.03;;
13969;SDS011;7057;49.984;8.404;2024-02-28T13:19:02;20.70;;;17.60;;
13969;SDS011;7057;49.984;8.404;2024-02-28T13:21:30;18.13;;;16.17;;
13969;SDS011;7057;49.984;8.404;2024-02-28T13:23:59;21.43;;;17.33;;
13969;SDS011;7057;49.984;8.404;2024-02-28T13:26:27;19.70;;;16.93;;
13969;SDS011;7057;49.984;8.404;2024-02-28T13:28:54;19.37;;;15.50;;
13969;SDS011;7057;49.984;8.404;2024-02-28T13:31:22;17.47;;;15.50;;
13969;SDS011;7057;49.984;8.404;2024-02-28T13:33:49;19.10;;;16.90;;
13969;SDS011;7057;49.984;8.404;2024-02-28T13:36:18;19.43;;;15.57;;
13969;SDS011;7057;49.984;8.404;2024-02-28T13:38:46;18.10;;;15.27;;
13969;SDS011;7057;49.984;8.404;2024-02-28T13:41:13;17.60;;;14.63;;
13969;SDS011;7057;49.984;8.404;2024-02-28T13:43:41;18.60;;;14.03;;
13969;SDS011;7057;49.984;8.404;2024-02-28T13:46:09;15.27;;;13.60;;
13969;SDS011;7057;49.984;8.404;2024-02-28T13:48:36;17.30;;;14.13;;
13969;SDS011;7057;49.984;8.404;2024-02-28T13:51:04;17.40;;;14.53;;
13969;SDS011;7057;49.984;8.404;2024-02-28T13:53:33;17.83;;;15.00;;
13969;SDS011;7057;49.984;8.404;2024-02-28T13:56:00;17.20;;;14.73;;
13969;SDS011;7057;49.984;8.404;2024-02-28T13:58:28;16.77;;;15.07;;
13969;SDS011;7057;49.984;8.404;2024-02-28T14:00:55;16.83;;;15.03;;
13969;SDS011;7057;49.984;8.404;2024-02-28T14:03:22;18.70;;;14.40;;
13969;SDS011;7057;49.984;8.404;2024-02-28T14:05:51;18.47;;;14.60;;
13969;SDS011;7057;49.984;8.404;2024-02-28T14:08:18;16.47;;;14.50;;
13969;SDS011;7057;49.984;8.404;2024-02-28T14:10:47;18.07;;;14.93;;
13969;SDS011;7057;49.984;8.404;2024-02-28T14:13:14;15.60;;;13.10;;
13969;SDS011;7057;49.984;8.404;2024-02-28T14:15:43;18.20;;;14.13;;
13969;SDS011;7057;49.984;8.404;2024-02-28T14:18:12;16.40;;;12.97;;
13969;SDS011;7057;49.984;8.404;2024-02-28T14:20:39;14.90;;;13.13;;
13969;SDS011;7057;49.984;8.404;2024-02-28T14:23:07;15.93;;;13.33;;
13969;SDS011;7057;49.984;8.404;2024-02-28T14:25:35;15.23;;;13.50;;
13969;SDS011;7057;49.984;8.404;2024-02-28T14:28:04;16.47;;;14.00;;
13969;SDS011;7057;49.984;8.404;2024-02-28T14:30:31;16.73;;;13.37;;
13969;SDS011;7057;49.984;8.404;2024-02-28T14:32:59;16.60;;;13.97;;
13969;SDS011;7057;49.984;8.404;2024-02-28T14:35:26;14.50;;;12.47;;
13969;SDS011;7057;49.984;8.404;2024-02-28T14:37:54;13.67;;;12.23;;